Time;durP1;ratioP1;P1;durP2;ratioP2;P2;SDS_P1;SDS_P2;PMS_P1;PMS_P2;Temp;Humidity;BMP_temperature;BMP_pressure;BME280_temperature;BME280_humidity;BME280_pressure;Samples;Min_cycle;Max_cycle;Signal;HPM_P1;HPM_P2
2021/03/24 00:04:44;;;;;;;14.75;5.72;;;2.60;99.90;;;;;;20826161;28;20272;-76
2021/03/24 00:14:45;;;;;;;9.60;4.93;;;2.60;99.90;;;;;;20825754;28;20107;-77
2021/03/24 00:24:46;;;;;;;11.87;6.47;;;2.60;99.90;;;;;;20825169;28;20423;-77
2021/03/24 00:34:47;;;;;;;16.40;5.37;;;2.50;99.90;;;;;;20828369;28;20391;-77
2021/03/24 00:44:47;;;;;;;12.90;5.80;;;2.40;99.90;;;;;;20828766;28;20030;-75
2021/03/24 00:54:48;;;;;;;17.00;6.20;;;2.30;99.90;;;;;;20794774;28;20030;-77
2021/03/24 01:04:49;;;;;;;12.17;6.47;;;2.30;99.90;;;;;;20827911;28;20352;-77
2021/03/24 01:14:50;;;;;;;18.00;7.67;;;2.20;99.90;;;;;;20828102;28;20382;-78
2021/03/24 01:24:53;;;;;;;19.30;6.72;;;2.10;99.90;;;;;;20827272;28;20021;-76
2021/03/24 01:34:54;;;;;;;15.93;6.45;;;2.00;99.90;;;;;;20810160;28;20038;-76
2021/03/24 01:45:00;;;;;;;13.60;6.25;;;1.80;99.90;;;;;;20835726;28;20094;-77
2021/03/24 01:55:01;;;;;;;15.40;6.05;;;1.10;99.90;;;;;;20822336;28;20620;-77
2021/03/24 02:05:02;;;;;;;16.13;7.57;;;0.80;99.90;;;;;;20821294;28;20029;-78
2021/03/24 02:15:22;;;;;;;15.45;5.97;;;1.10;99.90;;;;;;20837873;28;20029;-76
2021/03/24 02:25:29;;;;;;;9.50;5.22;;;0.60;99.90;;;;;;20835069;28;20064;-76
2021/03/24 02:35:33;;;;;;;12.93;6.07;;;0.60;99.90;;;;;;20834741;28;20064;-77
2021/03/24 02:45:38;;;;;;;11.52;5.32;;;0.60;99.90;;;;;;20816766;28;20500;-76
2021/03/24 02:55:42;;;;;;;13.40;5.78;;;0.50;99.90;;;;;;20834309;28;20109;-76
2021/03/24 03:05:45;;;;;;;17.02;6.68;;;0.50;99.90;;;;;;20833624;28;20036;-77
2021/03/24 03:15:47;;;;;;;15.25;6.00;;;0.40;99.90;;;;;;20814603;28;20120;-75
2021/03/24 03:26:03;;;;;;;13.20;6.13;;;0.00;99.90;;;;;;20830925;28;20030;-76
2021/03/24 03:36:04;;;;;;;12.32;6.00;;;0.10;99.90;;;;;;20830573;28;20060;-77
2021/03/24 03:46:06;;;;;;;13.52;6.93;;;0.30;99.90;;;;;;20830178;28;20037;-77
2021/03/24 03:56:21;;;;;;;17.60;8.30;;;0.50;99.90;;;;;;20828213;28;20032;-77
2021/03/24 04:06:43;;;;;;;23.40;9.25;;;0.70;99.90;;;;;;20821433;28;20420;-76
2021/03/24 04:16:46;;;;;;;22.15;8.40;;;0.70;99.90;;;;;;20823445;28;20646;-77
2021/03/24 04:26:50;;;;;;;26.27;9.60;;;0.70;99.90;;;;;;20826632;28;20033;-75
2021/03/24 04:37:20;;;;;;;21.02;9.95;;;0.60;99.90;;;;;;20824220;28;20105;-77
2021/03/24 04:47:26;;;;;;;25.75;10.20;;;0.50;99.90;;;;;;20860150;22;20116;-77
2021/03/24 04:57:28;;;;;;;24.65;9.32;;;0.40;99.90;;;;;;20841627;28;20554;-78
2021/03/24 05:07:40;;;;;;;18.27;9.80;;;0.40;99.90;;;;;;20864023;28;20731;-76
2021/03/24 05:17:42;;;;;;;20.92;8.93;;;0.40;99.90;;;;;;20815402;28;20125;-76
2021/03/24 05:28:08;;;;;;;26.45;9.88;;;0.40;99.90;;;;;;20846803;28;20033;-76
2021/03/24 05:38:18;;;;;;;20.73;8.95;;;0.30;99.90;;;;;;20813983;28;20048;-76
2021/03/24 05:48:41;;;;;;;18.73;7.85;;;0.20;99.90;;;;;;20837065;28;20613;-76
2021/03/24 05:59:13;;;;;;;21.25;8.07;;;0.40;99.90;;;;;;20818438;28;20033;-76
2021/03/24 06:09:51;;;;;;;23.17;9.45;;;0.70;99.90;;;;;;20834513;28;20488;-76
2021/03/24 06:20:10;;;;;;;17.83;9.18;;;0.80;99.90;;;;;;20817082;28;20519;-75
2021/03/24 06:30:25;;;;;;;23.52;9.35;;;1.20;99.90;;;;;;20833322;28;20035;-77
2021/03/24 06:40:43;;;;;;;20.05;9.40;;;1.60;99.90;;;;;;20821571;28;20033;-77
2021/03/24 06:50:58;;;;;;;27.42;9.00;;;2.20;99.90;;;;;;20841948;28;20060;-78
2021/03/24 07:01:11;;;;;;;18.92;9.20;;;3.00;99.90;;;;;;20825601;28;20091;-78
2021/03/24 07:11:40;;;;;;;24.35;9.35;;;3.30;99.90;;;;;;20844711;28;20033;-78
2021/03/24 07:22:14;;;;;;;22.60;10.52;;;3.30;99.90;;;;;;20827974;28;20045;-78
2021/03/24 07:32:39;;;;;;;21.42;10.00;;;3.80;99.90;;;;;;20828283;28;20044;-78
2021/03/24 07:42:49;;;;;;;20.85;9.02;;;4.00;99.90;;;;;;20843906;28;20033;-77
2021/03/24 07:53:15;;;;;;;20.90;8.88;;;4.20;99.90;;;;;;20826675;28;20037;-77
2021/03/24 08:03:31;;;;;;;21.20;10.05;;;5.30;99.90;;;;;;20842140;28;20040;-78
2021/03/24 08:13:57;;;;;;;22.20;10.52;;;5.90;99.90;;;;;;20844295;28;20021;-78
2021/03/24 08:24:35;;;;;;;23.08;10.43;;;7.20;99.90;;;;;;20843487;28;20036;-77
2021/03/24 08:34:57;;;;;;;25.33;10.45;;;7.40;99.90;;;;;;20842359;28;20026;-77
2021/03/24 08:45:29;;;;;;;24.40;11.57;;;8.70;99.90;;;;;;20823800;28;20601;-78
2021/03/24 08:56:01;;;;;;;23.45;10.27;;;9.20;99.90;;;;;;20855986;28;20507;-79
2021/03/24 09:06:14;;;;;;;19.80;9.53;;;10.40;99.90;;;;;;20858537;28;20025;-78
2021/03/24 09:16:46;;;;;;;18.85;9.88;;;10.80;99.90;;;;;;20828179;28;20037;-78
2021/03/24 09:27:42;;;;;;;20.05;10.45;;;11.80;99.90;;;;;;20841795;28;20034;-78
2021/03/24 09:37:47;;;;;;;21.02;9.35;;;12.00;99.90;;;;;;20800125;28;20053;-80
2021/03/24 09:47:54;;;;;;;16.25;8.50;;;12.10;99.90;;;;;;20866130;28;20564;-77
2021/03/24 09:58:15;;;;;;;18.65;9.45;;;12.60;99.90;;;;;;20861741;28;20040;-78
2021/03/24 10:08:30;;;;;;;15.32;8.32;;;13.50;99.90;;;;;;20859433;28;20064;-77
2021/03/24 10:19:01;;;;;;;15.57;9.02;;;15.70;99.90;;;;;;20858667;28;20053;-77
2021/03/24 10:29:09;;;;;;;17.60;8.50;;;13.90;99.90;;;;;;20822124;28;20068;-77
2021/03/24 10:39:26;;;;;;;19.13;8.45;;;16.00;99.90;;;;;;20837446;28;20033;-77
2021/03/24 10:49:52;;;;;;;16.58;8.60;;;17.20;99.90;;;;;;20818847;22;20091;-79
2021/03/24 11:00:14;;;;;;;15.05;8.18;;;16.30;99.90;;;;;;20773218;28;20045;-77
2021/03/24 11:10:29;;;;;;;17.20;7.53;;;17.40;99.90;;;;;;20776123;28;20049;-79
2021/03/24 11:21:15;;;;;;;14.55;7.78;;;17.90;99.50;;;;;;20771971;28;20412;-80
2021/03/24 11:31:20;;;;;;;12.15;6.38;;;18.50;95.90;;;;;;20756550;28;20042;-79
2021/03/24 11:41:25;;;;;;;12.75;6.22;;;17.50;96.70;;;;;;20774079;28;20033;-80
2021/03/24 11:51:38;;;;;;;12.40;6.43;;;17.90;96.00;;;;;;20773914;28;20121;-79
2021/03/24 12:02:13;;;;;;;17.52;6.78;;;19.80;91.90;;;;;;20773171;28;20030;-80
2021/03/24 12:12:21;;;;;;;12.35;6.22;;;20.40;89.40;;;;;;20772469;28;20061;-78
2021/03/24 12:22:28;;;;;;;12.73;6.22;;;18.90;90.10;;;;;;20772191;28;20093;-80
2021/03/24 12:32:34;;;;;;;12.15;5.45;;;19.30;88.90;;;;;;20772285;28;20061;-79
2021/03/24 12:42:36;;;;;;;8.55;4.85;;;18.80;87.70;;;;;;20770207;28;20071;-79
2021/03/24 12:53:02;;;;;;;8.57;4.10;;;18.90;84.90;;;;;;20771568;28;20093;-80
2021/03/24 13:03:40;;;;;;;7.00;4.03;;;17.80;80.70;;;;;;20768172;28;20038;-80
2021/03/24 13:14:18;;;;;;;5.15;2.95;;;18.10;84.00;;;;;;20764532;28;20030;-78
2021/03/24 13:24:26;;;;;;;12.48;3.15;;;18.70;74.80;;;;;;20768325;28;20489;-79
2021/03/24 13:34:47;;;;;;;7.82;3.65;;;17.40;72.10;;;;;;20767176;28;20037;-79
2021/03/24 13:44:57;;;;;;;5.75;2.50;;;18.20;71.20;;;;;;20776814;28;20049;-79
2021/03/24 13:55:21;;;;;;;4.35;2.40;;;19.30;68.60;;;;;;20774904;28;20033;-78
2021/03/24 14:05:22;;;;;;;8.23;3.03;;;19.00;66.80;;;;;;20764481;28;20041;-79
2021/03/24 14:15:33;;;;;;;4.07;1.80;;;18.00;67.30;;;;;;20771190;28;20030;-79
2021/03/24 14:25:38;;;;;;;2.70;1.60;;;17.80;60.00;;;;;;20777366;28;20369;-80
2021/03/24 14:35:56;;;;;;;4.45;2.05;;;18.10;57.60;;;;;;20783497;28;20026;-79
2021/03/24 14:46:26;;;;;;;4.43;1.77;;;18.30;57.30;;;;;;20857419;28;20037;-80
2021/03/24 14:56:39;;;;;;;4.00;2.22;;;19.40;56.30;;;;;;20786943;28;20048;-79
2021/03/24 15:06:41;;;;;;;;;;;19.00;56.70;;;;;;20854376;28;20035;-80
2021/03/24 15:17:10;;;;;;;2.75;1.35;;;18.50;58.00;;;;;;20777237;28;19917;-79
2021/03/24 15:27:25;;;;;;;3.58;1.88;;;18.50;57.60;;;;;;20745217;28;20041;-78
2021/03/24 15:37:50;;;;;;;3.63;1.88;;;18.50;57.40;;;;;;20681450;28;20131;-79
2021/03/24 15:47:52;;;;;;;3.13;1.55;;;17.60;57.90;;;;;;20749520;28;20124;-77
2021/03/24 15:57:57;;;;;;;;;;;17.70;57.20;;;;;;20775413;28;20029;-78
2021/03/24 16:08:13;;;;;;;4.18;1.55;;;17.30;57.10;;;;;;20790677;28;20540;-78
2021/03/24 16:18:47;;;;;;;5.45;3.35;;;17.20;58.50;;;;;;20780686;28;20064;-78
2021/03/24 16:28:58;;;;;;;3.72;2.25;;;16.50;61.20;;;;;;20787454;28;20037;-79
2021/03/24 16:39:21;;;;;;;9.15;3.20;;;16.20;63.10;;;;;;20763374;28;20114;-80
2021/03/24 16:49:24;;;;;;;7.03;4.03;;;15.80;67.20;;;;;;20760783;28;20033;-81
2021/03/24 17:00:03;;;;;;;8.40;4.72;;;15.60;68.60;;;;;;20806450;28;20029;-80
2021/03/24 17:10:27;;;;;;;9.30;5.05;;;15.40;69.60;;;;;;20766005;28;20049;-79
2021/03/24 17:20:37;;;;;;;5.07;2.50;;;15.20;69.60;;;;;;20768325;28;20096;-79
2021/03/24 17:30:38;;;;;;;12.38;3.25;;;14.40;77.60;;;;;;20771691;28;20575;-77
2021/03/24 17:40:51;;;;;;;9.25;2.60;;;13.50;83.10;;;;;;20784601;28;20044;-78
2021/03/24 17:51:07;;;;;;;9.55;4.25;;;12.70;86.60;;;;;;20764864;28;20648;-79
2021/03/24 18:01:24;;;;;;;12.35;6.70;;;12.00;91.10;;;;;;20811687;28;20064;-76
2021/03/24 18:11:25;;;;;;;12.45;5.60;;;11.00;96.00;;;;;;20759338;28;20110;-79
2021/03/24 18:21:26;;;;;;;8.95;4.57;;;10.60;99.60;;;;;;20760017;28;20717;-78
2021/03/24 18:31:50;;;;;;;10.32;4.05;;;9.90;99.90;;;;;;20795631;28;20116;-78
2021/03/24 18:41:51;;;;;;;9.88;4.03;;;8.80;99.90;;;;;;20777369;28;20128;-78
2021/03/24 18:52:23;;;;;;;11.33;3.80;;;8.10;99.90;;;;;;20764943;28;20449;-77
2021/03/24 19:02:33;;;;;;;8.45;3.70;;;8.00;99.90;;;;;;20788139;28;20025;-78
2021/03/24 19:12:38;;;;;;;16.63;5.60;;;7.40;99.90;;;;;;20784375;28;20064;-78
2021/03/24 19:22:39;;;;;;;7.03;3.22;;;7.10;99.90;;;;;;20736235;28;20590;-76
2021/03/24 19:32:40;;;;;;;7.73;3.33;;;6.90;99.90;;;;;;20735241;28;20121;-78
2021/03/24 19:42:55;;;;;;;15.73;3.80;;;6.60;99.90;;;;;;20736505;28;20033;-77
2021/03/24 19:52:58;;;;;;;8.05;3.65;;;6.40;99.90;;;;;;20743397;28;20289;-77
2021/03/24 20:03:23;;;;;;;12.98;4.20;;;6.50;99.90;;;;;;20732325;28;20118;-77
2021/03/24 20:13:38;;;;;;;8.40;3.63;;;6.10;99.90;;;;;;20799469;28;20526;-77
2021/03/24 20:23:39;;;;;;;6.07;3.22;;;5.60;99.90;;;;;;20803605;28;20395;-76
2021/03/24 20:33:58;;;;;;;8.97;3.77;;;5.50;99.90;;;;;;20783348;28;20033;-76
2021/03/24 20:44:01;;;;;;;10.68;3.58;;;5.40;99.90;;;;;;20776862;28;20037;-76
2021/03/24 20:54:02;;;;;;;7.78;3.17;;;5.30;99.90;;;;;;20781412;28;20048;-76
2021/03/24 21:04:04;;;;;;;11.60;2.93;;;5.50;99.90;;;;;;20785587;28;20488;-77
2021/03/24 21:14:07;;;;;;;7.70;2.80;;;6.00;99.90;;;;;;20775882;28;20033;-77
2021/03/24 21:24:08;;;;;;;8.45;3.70;;;5.70;99.90;;;;;;20778454;28;20057;-77
2021/03/24 21:34:09;;;;;;;9.27;3.63;;;5.50;99.90;;;;;;20768951;28;20037;-77
2021/03/24 21:44:22;;;;;;;5.80;2.97;;;4.50;99.90;;;;;;20787882;28;20038;-76
2021/03/24 21:54:24;;;;;;;4.75;2.80;;;5.10;99.90;;;;;;20782711;28;20037;-76
2021/03/24 22:04:34;;;;;;;8.35;4.03;;;4.40;99.90;;;;;;20777911;28;20030;-77
2021/03/24 22:14:47;;;;;;;5.25;2.70;;;4.80;99.90;;;;;;20808694;28;20026;-77
2021/03/24 22:24:48;;;;;;;5.22;2.67;;;4.70;99.90;;;;;;20764836;28;20392;-76
2021/03/24 22:35:00;;;;;;;6.63;3.17;;;4.40;99.90;;;;;;20761652;28;20034;-77
2021/03/24 22:45:06;;;;;;;6.05;2.88;;;4.30;99.90;;;;;;20752680;28;20037;-77
2021/03/24 22:55:23;;;;;;;5.07;2.38;;;4.40;99.90;;;;;;20766632;28;20056;-77
2021/03/24 23:05:25;;;;;;;4.45;2.33;;;4.20;99.90;;;;;;20831221;28;20053;-76
2021/03/24 23:15:37;;;;;;;5.72;2.63;;;3.60;99.90;;;;;;20803697;28;20060;-76
2021/03/24 23:25:39;;;;;;;5.43;2.70;;;3.90;99.90;;;;;;20775720;28;20026;-77
2021/03/24 23:35:42;;;;;;;4.82;2.55;;;4.20;99.90;;;;;;20749409;28;20030;-76
2021/03/24 23:45:44;;;;;;;8.48;2.58;;;4.30;99.90;;;;;;20795911;28;20038;-77
2021/03/24 23:55:56;;;;;;;5.28;2.92;;;4.60;99.90;;;;;;20834403;28;20033;-78
